sensor_id;sensor_type;location;lat;lon;timestamp;P1;durP1;ratioP1;P2;durP2;ratioP2
48596;SDS011;34382;43.160;24.148;2024-02-26T00:01:11;11.73;;;5.72;;
48596;SDS011;34382;43.160;24.148;2024-02-26T00:02:43;10.85;;;5.68;;
48596;SDS011;34382;43.160;24.148;2024-02-26T00:04:15;11.48;;;5.65;;
48596;SDS011;34382;43.160;24.148;2024-02-26T00:07:31;14.23;;;8.57;;
48596;SDS011;34382;43.160;24.148;2024-02-26T00:09:03;10.95;;;6.60;;
48596;SDS011;34382;43.160;24.148;2024-02-26T00:10:37;10.88;;;5.65;;
48596;SDS011;34382;43.160;24.148;2024-02-26T00:12:10;10.93;;;5.80;;
48596;SDS011;34382;43.160;24.148;2024-02-26T00:13:42;11.27;;;6.78;;
48596;SDS011;34382;43.160;24.148;2024-02-26T00:15:15;11.50;;;6.65;;
48596;SDS011;34382;43.160;24.148;2024-02-26T00:18:20;11.35;;;6.18;;
48596;SDS011;34382;43.160;24.148;2024-02-26T00:19:52;11.15;;;5.72;;
48596;SDS011;34382;43.160;24.148;2024-02-26T00:21:25;9.95;;;5.57;;
48596;SDS011;34382;43.160;24.148;2024-02-26T00:24:33;12.45;;;7.07;;
48596;SDS011;34382;43.160;24.148;2024-02-26T00:26:05;11.00;;;6.20;;
48596;SDS011;34382;43.160;24.148;2024-02-26T00:27:37;13.38;;;6.35;;
48596;SDS011;34382;43.160;24.148;2024-02-26T00:29:12;11.95;;;6.22;;
48596;SDS011;34382;43.160;24.148;2024-02-26T00:30:44;12.07;;;6.53;;
48596;SDS011;34382;43.160;24.148;2024-02-26T00:32:16;10.93;;;5.97;;
48596;SDS011;34382;43.160;24.148;2024-02-26T00:33:48;11.30;;;5.97;;
48596;SDS011;34382;43.160;24.148;2024-02-26T00:35:21;11.57;;;5.90;;
48596;SDS011;34382;43.160;24.148;2024-02-26T00:36:53;10.23;;;6.20;;
48596;SDS011;34382;43.160;24.148;2024-02-26T00:38:26;14.52;;;6.30;;
48596;SDS011;34382;43.160;24.148;2024-02-26T00:39:58;9.85;;;5.40;;
48596;SDS011;34382;43.160;24.148;2024-02-26T00:41:30;10.25;;;5.38;;
48596;SDS011;34382;43.160;24.148;2024-02-26T00:43:02;10.07;;;5.43;;
48596;SDS011;34382;43.160;24.148;2024-02-26T00:44:35;11.43;;;6.32;;
48596;SDS011;34382;43.160;24.148;2024-02-26T00:46:08;11.35;;;5.60;;
48596;SDS011;34382;43.160;24.148;2024-02-26T00:47:40;13.10;;;6.18;;
48596;SDS011;34382;43.160;24.148;2024-02-26T00:49:13;10.35;;;5.75;;
48596;SDS011;34382;43.160;24.148;2024-02-26T00:50:45;11.88;;;6.10;;
48596;SDS011;34382;43.160;24.148;2024-02-26T00:52:17;12.82;;;6.63;;
48596;SDS011;34382;43.160;24.148;2024-02-26T01:25:15;12.88;;;6.90;;
48596;SDS011;34382;43.160;24.148;2024-02-26T01:26:47;11.63;;;6.43;;
48596;SDS011;34382;43.160;24.148;2024-02-26T01:28:20;12.13;;;6.07;;
48596;SDS011;34382;43.160;24.148;2024-02-26T01:29:52;11.30;;;6.30;;
48596;SDS011;34382;43.160;24.148;2024-02-26T01:31:24;11.52;;;6.68;;
48596;SDS011;34382;43.160;24.148;2024-02-26T01:32:57;11.00;;;6.25;;
48596;SDS011;34382;43.160;24.148;2024-02-26T01:34:29;12.52;;;6.90;;
48596;SDS011;34382;43.160;24.148;2024-02-26T01:36:01;12.60;;;7.13;;
48596;SDS011;34382;43.160;24.148;2024-02-26T01:37:34;12.00;;;6.60;;
48596;SDS011;34382;43.160;24.148;2024-02-26T01:39:07;12.55;;;7.03;;
48596;SDS011;34382;43.160;24.148;2024-02-26T01:40:40;10.85;;;6.18;;
48596;SDS011;34382;43.160;24.148;2024-02-26T01:42:12;11.10;;;6.43;;
48596;SDS011;34382;43.160;24.148;2024-02-26T01:54:12;13.35;;;7.30;;
48596;SDS011;34382;43.160;24.148;2024-02-26T01:55:45;11.57;;;7.05;;
48596;SDS011;34382;43.160;24.148;2024-02-26T01:57:17;12.77;;;7.57;;
48596;SDS011;34382;43.160;24.148;2024-02-26T01:58:50;13.50;;;6.93;;
48596;SDS011;34382;43.160;24.148;2024-02-26T02:00:22;11.27;;;6.40;;
48596;SDS011;34382;43.160;24.148;2024-02-26T02:01:55;12.10;;;6.40;;
48596;SDS011;34382;43.160;24.148;2024-02-26T02:03:31;14.90;;;7.40;;
48596;SDS011;34382;43.160;24.148;2024-02-26T02:05:04;12.88;;;6.45;;
48596;SDS011;34382;43.160;24.148;2024-02-26T02:06:37;12.02;;;7.22;;
48596;SDS011;34382;43.160;24.148;2024-02-26T02:08:10;12.57;;;7.32;;
48596;SDS011;34382;43.160;24.148;2024-02-26T02:09:46;13.02;;;6.47;;
48596;SDS011;34382;43.160;24.148;2024-02-26T02:11:18;12.90;;;7.03;;
48596;SDS011;34382;43.160;24.148;2024-02-26T02:12:51;12.93;;;6.70;;
48596;SDS011;34382;43.160;24.148;2024-02-26T02:14:23;12.00;;;6.28;;
48596;SDS011;34382;43.160;24.148;2024-02-26T02:15:56;11.63;;;7.03;;
48596;SDS011;34382;43.160;24.148;2024-02-26T02:17:30;12.70;;;7.25;;
48596;SDS011;34382;43.160;24.148;2024-02-26T02:19:03;11.57;;;6.70;;
48596;SDS011;34382;43.160;24.148;2024-02-26T02:20:35;11.35;;;6.30;;
48596;SDS011;34382;43.160;24.148;2024-02-26T02:22:07;13.90;;;6.73;;
48596;SDS011;34382;43.160;24.148;2024-02-26T02:23:40;13.18;;;6.93;;
48596;SDS011;34382;43.160;24.148;2024-02-26T02:25:14;9.73;;;6.05;;
48596;SDS011;34382;43.160;24.148;2024-02-26T02:26:46;11.85;;;6.53;;
48596;SDS011;34382;43.160;24.148;2024-02-26T02:28:19;11.52;;;6.40;;
48596;SDS011;34382;43.160;24.148;2024-02-26T02:29:51;14.45;;;6.50;;
48596;SDS011;34382;43.160;24.148;2024-02-26T02:31:23;10.93;;;6.18;;
48596;SDS011;34382;43.160;24.148;2024-02-26T02:32:56;12.95;;;6.68;;
48596;SDS011;34382;43.160;24.148;2024-02-26T02:34:31;16.08;;;7.80;;
48596;SDS011;34382;43.160;24.148;2024-02-26T02:36:04;15.02;;;6.97;;
48596;SDS011;34382;43.160;24.148;2024-02-26T02:37:41;12.88;;;6.90;;
48596;SDS011;34382;43.160;24.148;2024-02-26T02:39:13;11.20;;;6.27;;
48596;SDS011;34382;43.160;24.148;2024-02-26T02:40:46;12.93;;;6.57;;
48596;SDS011;34382;43.160;24.148;2024-02-26T02:42:18;11.20;;;5.72;;
48596;SDS011;34382;43.160;24.148;2024-02-26T02:43:50;12.55;;;6.88;;
48596;SDS011;34382;43.160;24.148;2024-02-26T02:45:23;11.32;;;6.10;;
48596;SDS011;34382;43.160;24.148;2024-02-26T02:46:55;13.00;;;7.95;;
48596;SDS011;34382;43.160;24.148;2024-02-26T02:48:27;12.95;;;6.53;;
48596;SDS011;34382;43.160;24.148;2024-02-26T02:49:59;11.48;;;6.80;;
48596;SDS011;34382;43.160;24.148;2024-02-26T02:51:32;12.63;;;6.35;;
48596;SDS011;34382;43.160;24.148;2024-02-26T03:09:01;11.48;;;5.65;;
48596;SDS011;34382;43.160;24.148;2024-02-26T03:10:33;10.50;;;5.85;;
48596;SDS011;34382;43.160;24.148;2024-02-26T03:12:06;12.27;;;6.03;;
48596;SDS011;34382;43.160;24.148;2024-02-26T03:13:38;9.75;;;5.40;;
48596;SDS011;34382;43.160;24.148;2024-02-26T03:15:10;9.48;;;5.68;;
48596;SDS011;34382;43.160;24.148;2024-02-26T03:16:43;12.23;;;6.28;;
48596;SDS011;34382;43.160;24.148;2024-02-26T03:18:16;11.30;;;6.55;;
48596;SDS011;34382;43.160;24.148;2024-02-26T03:19:48;11.65;;;6.00;;
48596;SDS011;34382;43.160;24.148;2024-02-26T03:21:25;9.70;;;5.60;;
48596;SDS011;34382;43.160;24.148;2024-02-26T03:22:57;11.38;;;6.18;;
48596;SDS011;34382;43.160;24.148;2024-02-26T03:55:47;10.63;;;5.90;;
48596;SDS011;34382;43.160;24.148;2024-02-26T03:57:19;10.23;;;5.22;;
48596;SDS011;34382;43.160;24.148;2024-02-26T03:58:52;9.50;;;5.55;;
48596;SDS011;34382;43.160;24.148;2024-02-26T04:00:24;10.82;;;5.80;;
48596;SDS011;34382;43.160;24.148;2024-02-26T04:01:58;11.15;;;5.43;;
48596;SDS011;34382;43.160;24.148;2024-02-26T04:03:30;13.38;;;6.05;;
48596;SDS011;34382;43.160;24.148;2024-02-26T04:05:03;10.75;;;6.22;;
48596;SDS011;34382;43.160;24.148;2024-02-26T04:06:35;13.33;;;6.70;;
48596;SDS011;34382;43.160;24.148;2024-02-26T04:08:07;11.90;;;6.22;;
48596;SDS011;34382;43.160;24.148;2024-02-26T04:09:40;14.02;;;6.97;;
48596;SDS011;34382;43.160;24.148;2024-02-26T04:11:12;11.00;;;6.13;;
48596;SDS011;34382;43.160;24.148;2024-02-26T04:12:45;11.35;;;6.30;;
48596;SDS011;34382;43.160;24.148;2024-02-26T04:14:17;11.73;;;5.85;;
48596;SDS011;34382;43.160;24.148;2024-02-26T04:15:49;9.73;;;6.05;;
48596;SDS011;34382;43.160;24.148;2024-02-26T04:17:22;10.57;;;5.78;;
48596;SDS011;34382;43.160;24.148;2024-02-26T04:18:54;11.05;;;5.93;;
48596;SDS011;34382;43.160;24.148;2024-02-26T04:20:26;10.73;;;5.78;;
48596;SDS011;34382;43.160;24.148;2024-02-26T04:21:59;11.98;;;6.13;;
48596;SDS011;34382;43.160;24.148;2024-02-26T04:23:31;11.65;;;6.18;;
48596;SDS011;34382;43.160;24.148;2024-02-26T04:25:04;12.35;;;6.15;;
48596;SDS011;34382;43.160;24.148;2024-02-26T04:26:36;11.43;;;5.40;;
48596;SDS011;34382;43.160;24.148;2024-02-26T04:28:09;10.80;;;6.72;;
48596;SDS011;34382;43.160;24.148;2024-02-26T04:29:41;12.38;;;5.40;;
48596;SDS011;34382;43.160;24.148;2024-02-26T04:31:13;13.88;;;6.78;;
48596;SDS011;34382;43.160;24.148;2024-02-26T04:32:45;14.65;;;8.43;;
48596;SDS011;34382;43.160;24.148;2024-02-26T04:34:18;13.93;;;7.82;;
48596;SDS011;34382;43.160;24.148;2024-02-26T04:35:50;10.30;;;6.60;;
48596;SDS011;34382;43.160;24.148;2024-02-26T04:37:23;11.93;;;7.07;;
48596;SDS011;34382;43.160;24.148;2024-02-26T04:38:55;12.77;;;7.20;;
48596;SDS011;34382;43.160;24.148;2024-02-26T04:40:28;11.50;;;7.20;;
48596;SDS011;34382;43.160;24.148;2024-02-26T04:42:00;12.95;;;7.15;;
48596;SDS011;34382;43.160;24.148;2024-02-26T04:43:35;12.52;;;6.80;;
48596;SDS011;34382;43.160;24.148;2024-02-26T04:45:13;11.25;;;6.88;;
48596;SDS011;34382;43.160;24.148;2024-02-26T04:46:45;11.68;;;6.70;;
48596;SDS011;34382;43.160;24.148;2024-02-26T04:48:17;11.98;;;7.00;;
48596;SDS011;34382;43.160;24.148;2024-02-26T04:49:50;11.57;;;6.47;;
48596;SDS011;34382;43.160;24.148;2024-02-26T04:51:23;11.07;;;6.60;;
48596;SDS011;34382;43.160;24.148;2024-02-26T04:52:55;12.73;;;6.75;;
48596;SDS011;34382;43.160;24.148;2024-02-26T04:54:27;13.05;;;7.43;;
48596;SDS011;34382;43.160;24.148;2024-02-26T04:56:00;14.00;;;7.72;;
48596;SDS011;34382;43.160;24.148;2024-02-26T04:57:32;11.40;;;6.68;;
48596;SDS011;34382;43.160;24.148;2024-02-26T04:59:04;12.20;;;6.95;;
48596;SDS011;34382;43.160;24.148;2024-02-26T05:00:37;15.60;;;8.20;;
48596;SDS011;34382;43.160;24.148;2024-02-26T05:02:09;13.35;;;7.72;;
48596;SDS011;34382;43.160;24.148;2024-02-26T05:03:41;13.23;;;7.97;;
48596;SDS011;34382;43.160;24.148;2024-02-26T05:05:14;16.10;;;8.05;;
48596;SDS011;34382;43.160;24.148;2024-02-26T05:06:46;14.45;;;7.55;;
48596;SDS011;34382;43.160;24.148;2024-02-26T05:08:18;12.70;;;7.68;;
48596;SDS011;34382;43.160;24.148;2024-02-26T05:09:51;12.57;;;7.45;;
48596;SDS011;34382;43.160;24.148;2024-02-26T05:11:23;17.55;;;8.25;;
48596;SDS011;34382;43.160;24.148;2024-02-26T05:12:56;15.50;;;8.20;;
48596;SDS011;34382;43.160;24.148;2024-02-26T05:14:29;15.80;;;8.52;;
48596;SDS011;34382;43.160;24.148;2024-02-26T05:16:01;15.43;;;9.40;;
48596;SDS011;34382;43.160;24.148;2024-02-26T05:17:34;17.80;;;10.73;;
48596;SDS011;34382;43.160;24.148;2024-02-26T05:19:06;13.32;;;8.10;;
48596;SDS011;34382;43.160;24.148;2024-02-26T05:20:38;14.45;;;8.85;;
48596;SDS011;34382;43.160;24.148;2024-02-26T05:22:11;13.95;;;7.82;;
48596;SDS011;34382;43.160;24.148;2024-02-26T05:23:45;13.95;;;8.13;;
48596;SDS011;34382;43.160;24.148;2024-02-26T05:25:17;14.05;;;7.95;;
48596;SDS011;34382;43.160;24.148;2024-02-26T05:26:50;12.38;;;7.25;;
48596;SDS011;34382;43.160;24.148;2024-02-26T05:28:22;13.10;;;6.22;;
48596;SDS011;34382;43.160;24.148;2024-02-26T05:29:54;13.45;;;6.35;;
48596;SDS011;34382;43.160;24.148;2024-02-26T05:31:26;10.90;;;6.32;;
48596;SDS011;34382;43.160;24.148;2024-02-26T05:33:00;11.73;;;5.90;;
48596;SDS011;34382;43.160;24.148;2024-02-26T05:34:32;11.93;;;6.30;;
48596;SDS011;34382;43.160;24.148;2024-02-26T05:36:05;10.27;;;5.78;;
48596;SDS011;34382;43.160;24.148;2024-02-26T05:37:38;12.93;;;5.97;;
48596;SDS011;34382;43.160;24.148;2024-02-26T05:39:10;11.88;;;6.63;;
48596;SDS011;34382;43.160;24.148;2024-02-26T05:40:48;11.35;;;5.80;;
48596;SDS011;34382;43.160;24.148;2024-02-26T05:42:24;11.10;;;5.85;;
48596;SDS011;34382;43.160;24.148;2024-02-26T05:43:56;10.98;;;6.28;;
48596;SDS011;34382;43.160;24.148;2024-02-26T05:45:31;12.63;;;6.05;;
48596;SDS011;34382;43.160;24.148;2024-02-26T05:47:03;11.70;;;6.68;;
48596;SDS011;34382;43.160;24.148;2024-02-26T05:48:37;12.30;;;6.53;;
48596;SDS011;34382;43.160;24.148;2024-02-26T05:50:10;11.57;;;6.45;;
48596;SDS011;34382;43.160;24.148;2024-02-26T05:51:42;11.25;;;6.20;;
48596;SDS011;34382;43.160;24.148;2024-02-26T05:53:15;10.88;;;6.22;;
48596;SDS011;34382;43.160;24.148;2024-02-26T05:54:47;14.70;;;6.72;;
48596;SDS011;34382;43.160;24.148;2024-02-26T05:56:20;11.05;;;5.93;;
48596;SDS011;34382;43.160;24.148;2024-02-26T05:59:30;11.65;;;6.82;;
48596;SDS011;34382;43.160;24.148;2024-02-26T06:01:02;14.65;;;7.30;;
48596;SDS011;34382;43.160;24.148;2024-02-26T06:02:34;14.10;;;7.93;;
48596;SDS011;34382;43.160;24.148;2024-02-26T06:04:07;14.80;;;8.10;;
48596;SDS011;34382;43.160;24.148;2024-02-26T06:05:39;14.32;;;7.72;;
48596;SDS011;34382;43.160;24.148;2024-02-26T06:07:11;13.35;;;7.95;;
48596;SDS011;34382;43.160;24.148;2024-02-26T06:08:44;14.90;;;7.65;;
48596;SDS011;34382;43.160;24.148;2024-02-26T06:10:16;13.13;;;7.55;;
48596;SDS011;34382;43.160;24.148;2024-02-26T06:11:48;12.80;;;7.30;;
48596;SDS011;34382;43.160;24.148;2024-02-26T06:13:20;12.55;;;7.30;;
48596;SDS011;34382;43.160;24.148;2024-02-26T06:14:53;14.23;;;7.13;;
48596;SDS011;34382;43.160;24.148;2024-02-26T06:16:25;11.02;;;6.90;;
48596;SDS011;34382;43.160;24.148;2024-02-26T06:17:57;11.95;;;6.50;;
48596;SDS011;34382;43.160;24.148;2024-02-26T06:19:30;13.80;;;7.30;;
48596;SDS011;34382;43.160;24.148;2024-02-26T06:21:02;11.93;;;7.25;;
48596;SDS011;34382;43.160;24.148;2024-02-26T06:22:35;12.27;;;7.00;;
48596;SDS011;34382;43.160;24.148;2024-02-26T06:24:07;13.05;;;8.30;;
48596;SDS011;34382;43.160;24.148;2024-02-26T06:25:39;12.88;;;7.05;;
48596;SDS011;34382;43.160;24.148;2024-02-26T06:27:13;11.35;;;6.78;;
48596;SDS011;34382;43.160;24.148;2024-02-26T06:28:45;13.63;;;6.60;;
48596;SDS011;34382;43.160;24.148;2024-02-26T06:30:17;11.05;;;6.43;;
48596;SDS011;34382;43.160;24.148;2024-02-26T06:31:50;11.23;;;6.82;;
48596;SDS011;34382;43.160;24.148;2024-02-26T06:33:22;11.53;;;5.87;;
48596;SDS011;34382;43.160;24.148;2024-02-26T06:34:55;10.45;;;5.90;;
48596;SDS011;34382;43.160;24.148;2024-02-26T06:36:28;11.27;;;6.22;;
48596;SDS011;34382;43.160;24.148;2024-02-26T06:38:00;10.88;;;5.90;;
48596;SDS011;34382;43.160;24.148;2024-02-26T06:39:32;10.73;;;5.93;;
48596;SDS011;34382;43.160;24.148;2024-02-26T06:41:04;11.63;;;5.90;;
48596;SDS011;34382;43.160;24.148;2024-02-26T06:42:37;12.13;;;7.43;;
48596;SDS011;34382;43.160;24.148;2024-02-26T06:44:09;10.40;;;6.10;;
48596;SDS011;34382;43.160;24.148;2024-02-26T06:45:41;10.20;;;5.90;;
48596;SDS011;34382;43.160;24.148;2024-02-26T06:47:13;10.88;;;6.68;;
48596;SDS011;34382;43.160;24.148;2024-02-26T06:48:47;11.88;;;6.90;;
48596;SDS011;34382;43.160;24.148;2024-02-26T06:50:24;10.70;;;6.18;;
48596;SDS011;34382;43.160;24.148;2024-02-26T06:51:56;12.38;;;6.72;;
48596;SDS011;34382;43.160;24.148;2024-02-26T06:53:28;11.90;;;6.57;;
48596;SDS011;34382;43.160;24.148;2024-02-26T06:55:00;10.57;;;6.15;;
48596;SDS011;34382;43.160;24.148;2024-02-26T06:56:33;12.25;;;6.50;;
48596;SDS011;34382;43.160;24.148;2024-02-26T06:58:05;11.65;;;6.45;;
48596;SDS011;34382;43.160;24.148;2024-02-26T06:59:37;11.52;;;6.43;;
48596;SDS011;34382;43.160;24.148;2024-02-26T07:01:11;10.55;;;5.97;;
48596;SDS011;34382;43.160;24.148;2024-02-26T07:02:44;10.13;;;5.80;;
48596;SDS011;34382;43.160;24.148;2024-02-26T07:04:16;11.60;;;6.55;;
48596;SDS011;34382;43.160;24.148;2024-02-26T07:05:50;10.98;;;6.40;;
48596;SDS011;34382;43.160;24.148;2024-02-26T07:07:22;12.23;;;6.75;;
48596;SDS011;34382;43.160;24.148;2024-02-26T07:08:55;13.55;;;6.22;;
48596;SDS011;34382;43.160;24.148;2024-02-26T07:10:27;10.98;;;6.50;;
48596;SDS011;34382;43.160;24.148;2024-02-26T07:12:00;10.38;;;6.43;;
48596;SDS011;34382;43.160;24.148;2024-02-26T07:13:32;14.73;;;9.23;;
48596;SDS011;34382;43.160;24.148;2024-02-26T07:15:04;14.98;;;10.43;;
48596;SDS011;34382;43.160;24.148;2024-02-26T07:16:40;16.00;;;10.57;;
48596;SDS011;34382;43.160;24.148;2024-02-26T07:18:12;18.95;;;11.93;;
48596;SDS011;34382;43.160;24.148;2024-02-26T07:19:44;17.80;;;11.30;;
48596;SDS011;34382;43.160;24.148;2024-02-26T07:21:17;17.80;;;10.85;;
48596;SDS011;34382;43.160;24.148;2024-02-26T07:22:49;13.30;;;8.57;;
48596;SDS011;34382;43.160;24.148;2024-02-26T07:24:21;13.43;;;8.07;;
48596;SDS011;34382;43.160;24.148;2024-02-26T07:25:54;11.95;;;7.70;;
48596;SDS011;34382;43.160;24.148;2024-02-26T07:27:26;11.02;;;6.13;;
48596;SDS011;34382;43.160;24.148;2024-02-26T07:28:58;14.88;;;7.50;;
48596;SDS011;34382;43.160;24.148;2024-02-26T07:30:33;14.05;;;7.38;;
48596;SDS011;34382;43.160;24.148;2024-02-26T07:33:41;19.67;;;8.40;;
48596;SDS011;34382;43.160;24.148;2024-02-26T07:35:14;17.02;;;8.65;;
48596;SDS011;34382;43.160;24.148;2024-02-26T07:36:46;25.92;;;15.80;;
48596;SDS011;34382;43.160;24.148;2024-02-26T07:38:18;28.23;;;17.48;;
48596;SDS011;34382;43.160;24.148;2024-02-26T07:40:07;19.70;;;12.48;;
48596;SDS011;34382;43.160;24.148;2024-02-26T07:41:40;13.18;;;8.05;;
48596;SDS011;34382;43.160;24.148;2024-02-26T07:43:12;14.18;;;8.48;;
48596;SDS011;34382;43.160;24.148;2024-02-26T07:44:44;13.02;;;8.10;;
48596;SDS011;34382;43.160;24.148;2024-02-26T07:46:17;13.52;;;7.93;;
48596;SDS011;34382;43.160;24.148;2024-02-26T07:47:49;16.05;;;10.10;;
48596;SDS011;34382;43.160;24.148;2024-02-26T07:49:23;13.15;;;7.85;;
48596;SDS011;34382;43.160;24.148;2024-02-26T07:50:55;16.17;;;7.90;;
48596;SDS011;34382;43.160;24.148;2024-02-26T07:52:28;15.23;;;7.50;;
48596;SDS011;34382;43.160;24.148;2024-02-26T07:54:00;13.10;;;7.47;;
48596;SDS011;34382;43.160;24.148;2024-02-26T07:55:33;14.10;;;7.30;;
48596;SDS011;34382;43.160;24.148;2024-02-26T07:57:06;13.32;;;7.25;;
48596;SDS011;34382;43.160;24.148;2024-02-26T07:58:39;10.63;;;6.68;;
48596;SDS011;34382;43.160;24.148;2024-02-26T08:00:11;12.90;;;6.82;;
48596;SDS011;34382;43.160;24.148;2024-02-26T08:01:49;13.30;;;7.90;;
48596;SDS011;34382;43.160;24.148;2024-02-26T08:03:29;15.85;;;7.60;;
48596;SDS011;34382;43.160;24.148;2024-02-26T08:05:01;14.32;;;8.02;;
48596;SDS011;34382;43.160;24.148;2024-02-26T08:08:09;14.93;;;8.43;;
48596;SDS011;34382;43.160;24.148;2024-02-26T08:09:42;15.10;;;9.40;;
48596;SDS011;34382;43.160;24.148;2024-02-26T08:11:15;19.52;;;12.30;;
48596;SDS011;34382;43.160;24.148;2024-02-26T08:12:47;23.58;;;14.13;;
48596;SDS011;34382;43.160;24.148;2024-02-26T08:14:20;21.85;;;12.80;;
48596;SDS011;34382;43.160;24.148;2024-02-26T08:15:52;22.70;;;13.10;;
48596;SDS011;34382;43.160;24.148;2024-02-26T08:17:28;22.60;;;13.85;;
48596;SDS011;34382;43.160;24.148;2024-02-26T08:19:00;19.85;;;11.90;;
48596;SDS011;34382;43.160;24.148;2024-02-26T08:20:33;16.40;;;10.30;;
48596;SDS011;34382;43.160;24.148;2024-02-26T08:22:05;14.55;;;8.15;;
48596;SDS011;34382;43.160;24.148;2024-02-26T08:23:37;12.77;;;7.75;;
48596;SDS011;34382;43.160;24.148;2024-02-26T08:25:09;11.18;;;6.75;;
48596;SDS011;34382;43.160;24.148;2024-02-26T08:26:42;10.55;;;6.65;;
48596;SDS011;34382;43.160;24.148;2024-02-26T08:28:15;13.18;;;7.32;;
48596;SDS011;34382;43.160;24.148;2024-02-26T08:29:49;12.52;;;6.80;;
48596;SDS011;34382;43.160;24.148;2024-02-26T08:31:21;13.68;;;7.50;;
48596;SDS011;34382;43.160;24.148;2024-02-26T08:34:27;11.63;;;6.43;;
48596;SDS011;34382;43.160;24.148;2024-02-26T08:36:03;10.30;;;6.57;;
48596;SDS011;34382;43.160;24.148;2024-02-26T08:37:37;10.38;;;6.30;;
48596;SDS011;34382;43.160;24.148;2024-02-26T08:39:09;11.02;;;5.95;;
48596;SDS011;34382;43.160;24.148;2024-02-26T08:40:41;9.43;;;5.78;;
48596;SDS011;34382;43.160;24.148;2024-02-26T08:43:46;12.10;;;6.65;;
48596;SDS011;34382;43.160;24.148;2024-02-26T08:45:18;12.50;;;7.00;;
48596;SDS011;34382;43.160;24.148;2024-02-26T08:46:53;14.75;;;7.57;;
48596;SDS011;34382;43.160;24.148;2024-02-26T08:48:25;13.38;;;8.00;;
48596;SDS011;34382;43.160;24.148;2024-02-26T08:49:58;15.77;;;8.23;;
48596;SDS011;34382;43.160;24.148;2024-02-26T08:51:30;13.60;;;7.80;;
48596;SDS011;34382;43.160;24.148;2024-02-26T08:53:03;14.15;;;8.75;;
48596;SDS011;34382;43.160;24.148;2024-02-26T08:54:38;16.90;;;9.60;;
48596;SDS011;34382;43.160;24.148;2024-02-26T08:56:10;12.30;;;8.32;;
48596;SDS011;34382;43.160;24.148;2024-02-26T08:57:49;13.95;;;9.30;;
48596;SDS011;34382;43.160;24.148;2024-02-26T08:59:22;16.25;;;9.10;;
48596;SDS011;34382;43.160;24.148;2024-02-26T09:00:55;15.10;;;9.95;;
48596;SDS011;34382;43.160;24.148;2024-02-26T09:02:27;16.83;;;10.30;;
48596;SDS011;34382;43.160;24.148;2024-02-26T09:04:03;15.80;;;9.95;;
48596;SDS011;34382;43.160;24.148;2024-02-26T09:05:35;19.13;;;10.18;;
48596;SDS011;34382;43.160;24.148;2024-02-26T09:07:07;15.68;;;9.02;;
48596;SDS011;34382;43.160;24.148;2024-02-26T09:08:40;14.13;;;9.68;;
48596;SDS011;34382;43.160;24.148;2024-02-26T09:10:12;16.30;;;9.43;;
48596;SDS011;34382;43.160;24.148;2024-02-26T09:11:44;14.43;;;9.02;;
48596;SDS011;34382;43.160;24.148;2024-02-26T09:13:17;15.10;;;8.88;;
48596;SDS011;34382;43.160;24.148;2024-02-26T09:14:50;14.93;;;9.07;;
48596;SDS011;34382;43.160;24.148;2024-02-26T09:17:55;13.27;;;8.50;;
48596;SDS011;34382;43.160;24.148;2024-02-26T09:19:28;16.80;;;8.70;;
48596;SDS011;34382;43.160;24.148;2024-02-26T09:21:04;13.00;;;7.37;;
48596;SDS011;34382;43.160;24.148;2024-02-26T09:22:38;12.43;;;7.88;;
48596;SDS011;34382;43.160;24.148;2024-02-26T09:24:11;11.98;;;8.20;;
48596;SDS011;34382;43.160;24.148;2024-02-26T09:25:43;12.80;;;7.22;;
48596;SDS011;34382;43.160;24.148;2024-02-26T09:27:15;15.00;;;8.70;;
48596;SDS011;34382;43.160;24.148;2024-02-26T09:28:49;14.95;;;8.57;;
48596;SDS011;34382;43.160;24.148;2024-02-26T09:30:21;13.98;;;8.10;;
48596;SDS011;34382;43.160;24.148;2024-02-26T09:31:53;14.37;;;8.63;;
48596;SDS011;34382;43.160;24.148;2024-02-26T09:33:26;11.30;;;7.57;;
48596;SDS011;34382;43.160;24.148;2024-02-26T09:34:58;14.03;;;8.50;;
48596;SDS011;34382;43.160;24.148;2024-02-26T09:36:33;12.00;;;7.85;;
48596;SDS011;34382;43.160;24.148;2024-02-26T09:38:05;14.35;;;9.15;;
48596;SDS011;34382;43.160;24.148;2024-02-26T09:39:42;12.23;;;7.90;;
48596;SDS011;34382;43.160;24.148;2024-02-26T09:41:14;12.75;;;8.30;;
48596;SDS011;34382;43.160;24.148;2024-02-26T09:42:52;12.80;;;7.78;;
48596;SDS011;34382;43.160;24.148;2024-02-26T09:44:27;12.07;;;7.97;;
48596;SDS011;34382;43.160;24.148;2024-02-26T09:46:02;13.82;;;8.65;;
48596;SDS011;34382;43.160;24.148;2024-02-26T09:47:36;14.35;;;8.05;;
48596;SDS011;34382;43.160;24.148;2024-02-26T09:49:08;12.63;;;7.85;;
48596;SDS011;34382;43.160;24.148;2024-02-26T09:50:44;13.77;;;8.68;;
48596;SDS011;34382;43.160;24.148;2024-02-26T09:52:16;12.90;;;8.45;;
48596;SDS011;34382;43.160;24.148;2024-02-26T09:53:49;14.63;;;9.07;;
48596;SDS011;34382;43.160;24.148;2024-02-26T09:55:24;13.85;;;9.30;;
48596;SDS011;34382;43.160;24.148;2024-02-26T09:56:57;15.45;;;9.45;;
48596;SDS011;34382;43.160;24.148;2024-02-26T09:58:35;14.23;;;9.07;;
48596;SDS011;34382;43.160;24.148;2024-02-26T10:00:08;15.07;;;9.45;;
48596;SDS011;34382;43.160;24.148;2024-02-26T10:01:42;15.43;;;8.93;;
48596;SDS011;34382;43.160;24.148;2024-02-26T10:03:16;14.35;;;8.90;;
48596;SDS011;34382;43.160;24.148;2024-02-26T10:04:50;16.05;;;9.15;;
48596;SDS011;34382;43.160;24.148;2024-02-26T10:06:28;14.23;;;9.18;;
48596;SDS011;34382;43.160;24.148;2024-02-26T10:08:01;13.88;;;8.98;;
48596;SDS011;34382;43.160;24.148;2024-02-26T10:09:33;15.07;;;9.80;;
48596;SDS011;34382;43.160;24.148;2024-02-26T10:11:06;14.85;;;8.98;;
48596;SDS011;34382;43.160;24.148;2024-02-26T10:12:39;14.57;;;8.57;;
48596;SDS011;34382;43.160;24.148;2024-02-26T10:14:12;13.90;;;9.13;;
48596;SDS011;34382;43.160;24.148;2024-02-26T10:15:44;12.43;;;9.02;;
48596;SDS011;34382;43.160;24.148;2024-02-26T10:17:17;14.13;;;9.43;;
48596;SDS011;34382;43.160;24.148;2024-02-26T10:18:51;12.30;;;7.65;;
48596;SDS011;34382;43.160;24.148;2024-02-26T10:20:30;13.25;;;7.60;;
48596;SDS011;34382;43.160;24.148;2024-02-26T10:22:03;13.30;;;8.52;;
48596;SDS011;34382;43.160;24.148;2024-02-26T10:23:36;12.55;;;7.45;;
48596;SDS011;34382;43.160;24.148;2024-02-26T10:25:08;13.32;;;7.82;;
48596;SDS011;34382;43.160;24.148;2024-02-26T10:26:45;12.20;;;6.80;;
48596;SDS011;34382;43.160;24.148;2024-02-26T10:28:18;12.65;;;7.38;;
48596;SDS011;34382;43.160;24.148;2024-02-26T10:29:50;13.07;;;7.90;;
48596;SDS011;34382;43.160;24.148;2024-02-26T10:31:25;10.63;;;6.68;;
48596;SDS011;34382;43.160;24.148;2024-02-26T10:32:57;13.00;;;6.95;;
48596;SDS011;34382;43.160;24.148;2024-02-26T10:34:31;13.30;;;7.93;;
48596;SDS011;34382;43.160;24.148;2024-02-26T10:36:06;12.23;;;7.93;;
48596;SDS011;34382;43.160;24.148;2024-02-26T10:37:42;12.80;;;7.72;;
48596;SDS011;34382;43.160;24.148;2024-02-26T10:39:15;13.10;;;7.53;;
48596;SDS011;34382;43.160;24.148;2024-02-26T10:40:50;12.73;;;7.03;;
48596;SDS011;34382;43.160;24.148;2024-02-26T10:42:23;11.77;;;6.47;;
48596;SDS011;34382;43.160;24.148;2024-02-26T10:43:55;12.35;;;6.78;;
48596;SDS011;34382;43.160;24.148;2024-02-26T10:45:27;12.57;;;7.05;;
48596;SDS011;34382;43.160;24.148;2024-02-26T10:47:00;11.93;;;6.50;;